Time;durP1;ratioP1;P1;durP2;ratioP2;P2;SDS_P1;SDS_P2;PMS_P1;PMS_P2;Temp;Humidity;BMP_temperature;BMP_pressure;BME280_temperature;BME280_humidity;BME280_pressure;Samples;Min_cycle;Max_cycle;Signal;HPM_P1;HPM_P2
2020/12/04 00:00:35;;;;;;;11.50;6.37;;;;;;;3.68;81.86;95565.83;1734231;81;21626;-80
2020/12/04 00:03:04;;;;;;;9.93;6.30;;;;;;;4.07;80.16;95564.27;1734507;83;21123;-80
2020/12/04 00:05:31;;;;;;;10.90;6.33;;;;;;;3.83;80.02;95561.91;1734437;83;21459;-80
2020/12/04 00:07:59;;;;;;;14.58;7.45;;;;;;;3.64;80.44;95566.06;1734295;82;21264;-80
2020/12/04 00:10:26;;;;;;;11.63;7.03;;;;;;;3.49;81.01;95559.74;1734218;81;21288;-80
2020/12/04 00:12:53;;;;;;;12.43;6.58;;;;;;;3.33;81.26;95558.66;1734322;83;21142;-80
2020/12/04 00:15:20;;;;;;;11.10;5.92;;;;;;;3.16;81.08;95558.87;1734229;83;21541;-80
2020/12/04 00:17:47;;;;;;;9.43;5.60;;;;;;;2.94;81.21;95565.58;1734321;82;21268;-80
2020/12/04 00:20:14;;;;;;;8.70;5.10;;;;;;;2.84;81.59;95572.87;1734338;81;21288;-80
2020/12/04 00:22:41;;;;;;;10.65;6.65;;;;;;;2.71;81.39;95576.47;1734268;83;21162;-80
2020/12/04 00:25:09;;;;;;;14.07;7.30;;;;;;;2.42;81.62;95582.58;1734269;83;21138;-80
2020/12/04 00:27:36;;;;;;;11.88;6.28;;;;;;;2.03;81.15;95572.34;1734300;83;21111;-80
2020/12/04 00:30:04;;;;;;;9.10;5.42;;;;;;;1.82;81.70;95571.89;1734245;81;21189;-80
2020/12/04 00:32:30;;;;;;;10.55;5.97;;;;;;;1.74;82.41;95567.39;1734355;82;21285;-80
2020/12/04 00:34:57;;;;;;;10.65;5.78;;;;;;;1.69;82.56;95567.84;1734314;83;21280;-80
2020/12/04 00:37:24;;;;;;;11.30;6.37;;;;;;;1.42;82.57;95579.63;1734388;82;21641;-80
2020/12/04 00:39:51;;;;;;;12.18;6.92;;;;;;;1.21;83.01;95576.51;1734231;81;21146;-80
2020/12/04 00:42:18;;;;;;;11.45;6.22;;;;;;;1.15;83.52;95563.41;1734335;82;21138;-80
2020/12/04 00:44:45;;;;;;;11.70;7.00;;;;;;;1.16;84.02;95574.13;1734294;83;21292;-80
2020/12/04 00:47:12;;;;;;;12.73;7.03;;;;;;;1.14;84.18;95562.35;1734394;83;21277;-80
2020/12/04 00:49:40;;;;;;;13.15;7.10;;;;;;;1.06;84.49;95565.37;1734253;81;21303;-80
2020/12/04 00:52:06;;;;;;;11.28;6.92;;;;;;;0.99;84.49;95568.19;1734317;83;21281;-80
2020/12/04 00:54:34;;;;;;;13.35;6.35;;;;;;;1.01;85.48;95558.29;1734215;83;21331;-80
2020/12/04 00:57:01;;;;;;;12.75;7.22;;;;;;;0.96;85.99;95534.73;1734585;82;21134;-80
2020/12/04 00:59:28;;;;;;;12.45;6.17;;;;;;;1.03;85.43;95548.39;1734244;81;21288;-80
2020/12/04 01:01:55;;;;;;;12.15;5.95;;;;;;;0.94;85.21;95541.22;1734259;83;21134;-80
2020/12/04 01:04:22;;;;;;;10.58;6.42;;;;;;;1.02;85.64;95537.68;1734237;83;21103;-80
2020/12/04 01:06:49;;;;;;;8.10;5.17;;;;;;;1.19;86.42;95549.34;1734286;83;21141;-80
2020/12/04 01:09:17;;;;;;;11.12;5.75;;;;;;;1.27;85.93;95557.24;1734200;83;21301;-80
2020/12/04 01:11:44;;;;;;;10.93;5.67;;;;;;;1.09;85.27;95548.70;1734252;83;21727;-80
2020/12/04 01:14:11;;;;;;;9.10;5.72;;;;;;;0.98;84.97;95558.75;1734206;82;21138;-80
2020/12/04 01:16:38;;;;;;;14.23;6.87;;;;;;;0.94;85.22;95545.92;1734338;83;21300;-80
2020/12/04 01:19:05;;;;;;;10.85;6.47;;;;;;;1.00;85.63;95543.66;1734316;82;21142;-80
2020/12/04 01:21:32;;;;;;;13.30;7.15;;;;;;;1.01;85.49;95545.23;1734225;81;21169;-80
2020/12/04 01:23:59;;;;;;;15.58;9.40;;;;;;;0.75;84.71;95530.31;1734294;82;21276;-80
2020/12/04 01:26:25;;;;;;;12.53;6.78;;;;;;;0.46;84.73;95533.59;1734338;82;21142;-80
2020/12/04 01:28:52;;;;;;;12.40;6.80;;;;;;;0.36;84.96;95528.23;1734233;83;21280;-80
2020/12/04 01:31:19;;;;;;;11.22;6.92;;;;;;;0.21;85.08;95524.39;1734249;81;21268;-80
2020/12/04 01:33:46;;;;;;;14.55;8.90;;;;;;;0.22;85.41;95526.48;1734352;82;21123;-80
2020/12/04 01:36:15;;;;;;;10.60;6.17;;;;;;;0.24;85.66;95517.91;1734288;83;21137;-80
2020/12/04 01:38:43;;;;;;;12.60;7.35;;;;;;;0.27;86.14;95526.02;1734258;83;21138;-80
2020/12/04 01:41:09;;;;;;;17.15;8.60;;;;;;;0.36;86.96;95522.51;1734135;81;21277;-80
2020/12/04 01:43:36;;;;;;;13.70;7.80;;;;;;;0.57;87.73;95528.28;1734146;83;21134;-80
2020/12/04 01:46:03;;;;;;;11.80;6.87;;;;;;;0.86;88.27;95521.06;1734274;83;21281;-80
2020/12/04 01:48:30;;;;;;;11.45;6.10;;;;;;;0.99;87.81;95526.44;1734329;83;21176;-80
2020/12/04 01:51:00;;;;;;;8.10;4.85;;;;;;;0.95;87.99;95526.63;1734114;81;21171;-80
2020/12/04 01:53:28;;;;;;;14.05;7.83;;;;;;;0.89;87.35;95534.92;1706556;83;21163;-80
2020/12/04 01:55:55;;;;;;;12.68;7.78;;;;;;;0.48;86.42;95531.53;1728832;83;21489;-80
2020/12/04 01:58:22;;;;;;;13.28;7.20;;;;;;;0.18;86.58;95518.87;1728763;83;21158;-80
2020/12/04 02:00:49;;;;;;;11.30;6.67;;;;;;;0.07;86.54;95516.63;1728752;82;21146;-80
2020/12/04 02:03:17;;;;;;;9.83;5.50;;;;;;;0.04;86.59;95515.02;1728782;83;21159;-80
2020/12/04 02:05:58;;;;;;;10.53;6.60;;;;;;;-0.01;87.32;95513.90;1728730;83;21130;-80
2020/12/04 02:08:58;;;;;;;9.80;5.20;;;;;;;-0.06;87.87;95507.32;1729072;83;21155;-79
2020/12/04 02:11:28;;;;;;;14.45;7.35;;;;;;;0.32;89.36;95490.14;1728532;82;21289;-80
2020/12/04 02:13:57;;;;;;;10.90;6.20;;;;;;;1.36;89.79;95478.23;1729288;83;21134;-80
2020/12/04 02:16:24;;;;;;;13.62;6.80;;;;;;;1.42;88.28;95478.57;1728801;83;21514;-80
2020/12/04 02:18:52;;;;;;;10.03;6.42;;;;;;;1.29;87.41;95472.97;1728857;83;21514;-80
2020/12/04 02:21:20;;;;;;;9.73;5.97;;;;;;;1.22;87.00;95472.36;1728729;82;21168;-80
2020/12/04 02:23:50;;;;;;;12.93;6.53;;;;;;;1.41;87.49;95467.08;1728858;83;21130;-80
2020/12/04 02:26:22;;;;;;;10.20;5.53;;;;;;;1.61;87.33;95456.78;1728891;83;21095;-80
2020/12/04 02:28:50;;;;;;;10.55;5.40;;;;;;;1.54;86.94;95446.26;1728972;83;21127;-80
2020/12/04 02:31:17;;;;;;;11.08;6.15;;;;;;;1.52;86.88;95450.95;1728608;82;21319;-80
2020/12/04 02:33:46;;;;;;;9.95;6.17;;;;;;;1.17;85.91;95447.80;1728956;83;21471;-80
2020/12/04 02:36:13;;;;;;;9.83;5.78;;;;;;;1.07;86.05;95442.47;1728868;83;21147;-80
2020/12/04 02:38:39;;;;;;;12.65;6.72;;;;;;;1.06;86.23;95438.28;1728948;83;21158;-80
2020/12/04 02:41:09;;;;;;;10.18;5.75;;;;;;;1.05;86.30;95431.49;1728622;82;21147;-80
2020/12/04 02:43:37;;;;;;;10.15;5.97;;;;;;;1.06;86.37;95444.81;1728864;83;21163;-80
2020/12/04 02:46:08;;;;;;;10.10;5.53;;;;;;;1.06;86.36;95435.67;1728798;83;21138;-80
2020/12/04 02:48:36;;;;;;;9.60;6.22;;;;;;;1.18;86.91;95435.01;1728851;83;21488;-80
2020/12/04 02:51:08;;;;;;;10.93;6.35;;;;;;;1.39;87.07;95426.82;1728624;82;21667;-80
2020/12/04 02:53:35;;;;;;;10.88;5.85;;;;;;;1.38;86.71;95427.07;1728762;83;21511;-80
2020/12/04 02:56:03;;;;;;;10.43;5.97;;;;;;;1.23;85.92;95436.08;1728767;83;21487;-80
2020/12/04 02:58:31;;;;;;;9.90;5.87;;;;;;;0.94;85.37;95437.64;1728818;83;21566;-80
2020/12/04 03:00:58;;;;;;;10.48;6.22;;;;;;;0.97;86.12;95437.14;1756673;82;21100;-80
2020/12/04 03:03:25;;;;;;;7.70;5.20;;;;;;;0.92;85.91;95428.48;1759072;82;21281;-80
2020/12/04 03:05:53;;;;;;;10.05;6.22;;;;;;;0.88;86.32;95416.46;1758739;81;21123;-80
2020/12/04 03:08:20;;;;;;;11.48;6.45;;;;;;;1.15;87.05;95430.30;1758803;81;21134;-80
2020/12/04 03:10:47;;;;;;;11.95;6.67;;;;;;;1.26;86.92;95416.00;1758751;82;21280;-80
2020/12/04 03:13:14;;;;;;;12.30;6.37;;;;;;;1.30;86.81;95416.58;1735334;81;21272;-80
2020/12/04 03:15:41;;;;;;;7.67;4.58;;;;;;;1.30;86.72;95424.41;1728702;83;21265;-80
2020/12/04 03:18:08;;;;;;;9.55;5.50;;;;;;;1.06;85.66;95410.88;1728824;83;21142;-80
2020/12/04 03:20:35;;;;;;;8.28;4.90;;;;;;;0.91;86.03;95415.97;1728763;82;21142;-80
2020/12/04 03:23:02;;;;;;;8.65;5.15;;;;;;;0.83;85.91;95425.00;1729020;83;21154;-80
2020/12/04 03:25:29;;;;;;;11.22;5.85;;;;;;;0.69;85.59;95433.45;1728736;83;21170;-80
2020/12/04 03:27:56;;;;;;;9.70;5.55;;;;;;;0.58;85.74;95443.02;1728732;83;21317;-80
2020/12/04 03:30:23;;;;;;;10.50;5.92;;;;;;;0.58;86.11;95433.37;1728632;82;21104;-80
2020/12/04 03:32:50;;;;;;;10.18;5.97;;;;;;;0.62;86.43;95447.22;1728880;83;21158;-80
2020/12/04 03:35:17;;;;;;;12.60;6.72;;;;;;;0.66;86.61;95439.95;1728913;83;21150;-80
2020/12/04 03:37:43;;;;;;;10.95;6.72;;;;;;;0.73;86.62;95438.48;1729058;83;21158;-80
2020/12/04 03:40:10;;;;;;;12.40;7.33;;;;;;;0.71;86.63;95423.08;1728863;82;21154;-80
2020/12/04 03:42:37;;;;;;;10.60;6.55;;;;;;;0.68;86.85;95421.45;1728857;83;21260;-80
2020/12/04 03:45:04;;;;;;;9.00;5.78;;;;;;;0.64;86.81;95425.59;1728896;83;21111;-80
2020/12/04 03:47:31;;;;;;;11.25;6.70;;;;;;;0.67;87.55;95414.66;1728928;83;21154;-80
2020/12/04 03:49:58;;;;;;;9.55;6.35;;;;;;;0.74;87.51;95416.58;1728823;82;21099;-80
2020/12/04 03:52:25;;;;;;;10.48;6.00;;;;;;;0.79;87.30;95417.92;1728793;83;21530;-80
2020/12/04 03:54:51;;;;;;;9.30;5.45;;;;;;;0.78;87.40;95420.27;1731502;83;21284;-80
2020/12/04 03:57:18;;;;;;;10.25;5.95;;;;;;;0.98;88.00;95401.40;1734355;83;21305;-80
2020/12/04 03:59:45;;;;;;;7.95;4.53;;;;;;;1.37;88.08;95407.22;1734377;81;21290;-80
2020/12/04 04:02:12;;;;;;;12.33;7.05;;;;;;;1.60;87.95;95399.05;1734497;83;21142;-80
2020/12/04 04:04:39;;;;;;;12.33;7.35;;;;;;;1.64;87.50;95408.47;1734393;83;21269;-80
2020/12/04 04:07:06;;;;;;;9.38;6.50;;;;;;;1.58;86.76;95412.87;1734241;82;21143;-80
2020/12/04 04:09:33;;;;;;;10.58;6.03;;;;;;;1.39;86.21;95401.23;1734289;81;21261;-80
2020/12/04 04:12:00;;;;;;;12.03;5.78;;;;;;;1.44;86.52;95407.81;1734134;82;21518;-80
2020/12/04 04:14:27;;;;;;;10.18;6.00;;;;;;;1.44;86.46;95406.51;1734386;82;21621;-80
2020/12/04 04:16:53;;;;;;;9.10;5.65;;;;;;;1.43;86.96;95387.97;1734343;82;21300;-80
2020/12/04 04:19:20;;;;;;;8.80;5.60;;;;;;;1.67;87.02;95405.34;1734282;81;21111;-80
2020/12/04 04:21:47;;;;;;;8.85;5.97;;;;;;;1.70;86.84;95404.87;1734379;83;21661;-80
2020/12/04 04:24:15;;;;;;;8.70;4.80;;;;;;;1.73;86.85;95392.08;1734512;83;21272;-80
2020/12/04 04:26:42;;;;;;;7.87;4.42;;;;;;;1.83;86.93;95396.59;1734259;83;21664;-80
2020/12/04 04:29:09;;;;;;;9.60;5.20;;;;;;;1.85;86.75;95411.50;1734310;82;21138;-80
2020/12/04 04:31:37;;;;;;;7.92;4.67;;;;;;;1.85;86.75;95405.48;1734143;81;21514;-80
2020/12/04 04:34:04;;;;;;;8.43;5.17;;;;;;;1.88;86.71;95408.38;1734303;83;21525;-80
2020/12/04 04:36:30;;;;;;;4.78;3.35;;;;;;;1.83;86.63;95402.31;1734295;83;21138;-80
2020/12/04 04:38:57;;;;;;;8.58;5.58;;;;;;;1.84;86.70;95396.07;1734578;83;21134;-80
2020/12/04 04:41:25;;;;;;;7.17;4.45;;;;;;;1.75;86.46;95399.67;1734045;81;21120;-80
2020/12/04 04:43:54;;;;;;;8.78;5.50;;;;;;;1.77;86.45;95398.37;1734301;82;21248;-80
2020/12/04 04:46:48;;;;;;;9.45;5.97;;;;;;;1.85;86.61;95407.58;1734241;83;21300;-80
2020/12/04 04:49:27;;;;;;;10.00;5.90;;;;;;;1.89;86.55;95388.25;1734599;82;21159;-80
2020/12/04 04:51:58;;;;;;;8.58;5.37;;;;;;;1.94;86.68;95387.75;1734194;83;21123;-80
2020/12/04 04:54:28;;;;;;;9.73;6.03;;;;;;;2.20;87.11;95396.51;1734233;82;21131;-80
2020/12/04 04:56:55;;;;;;;10.70;6.10;;;;;;;2.42;86.73;95380.66;1734383;83;21150;-80
2020/12/04 04:59:23;;;;;;;9.70;5.65;;;;;;;2.56;86.56;95378.34;1734332;81;21617;-80
2020/12/04 05:01:51;;;;;;;8.20;5.03;;;;;;;2.65;86.37;95376.26;1734254;83;21268;-80
2020/12/04 05:04:18;;;;;;;6.40;4.55;;;;;;;2.96;86.57;95373.20;1734351;82;21285;-80
2020/12/04 05:06:46;;;;;;;8.45;4.80;;;;;;;3.16;86.27;95378.19;1734403;83;21281;-80
2020/12/04 05:09:25;;;;;;;11.38;5.80;;;;;;;3.26;85.95;95384.22;1734358;82;21142;-80
2020/12/04 05:11:59;;;;;;;8.70;6.10;;;;;;;3.29;85.48;95390.77;1734285;83;21511;-80
2020/12/04 05:14:28;;;;;;;12.13;5.65;;;;;;;3.24;84.69;95386.84;1734284;83;21313;-80
2020/12/04 05:16:57;;;;;;;10.60;5.90;;;;;;;3.37;84.71;95398.08;1734288;82;21530;-80
2020/12/04 05:19:33;;;;;;;13.93;6.42;;;;;;;3.40;84.47;95403.34;1734375;81;21142;-80
2020/12/04 05:22:17;;;;;;;8.15;5.15;;;;;;;3.43;84.36;95417.22;1734262;82;21155;-80
2020/12/04 05:24:46;;;;;;;13.25;6.00;;;;;;;3.46;84.34;95412.77;1734270;82;21268;-80
2020/12/04 05:27:28;;;;;;;12.23;7.87;;;;;;;3.42;84.20;95385.53;1734292;82;21648;-80
2020/12/04 05:29:58;;;;;;;10.20;6.37;;;;;;;3.36;84.08;95397.82;1734307;81;21491;-80
2020/12/04 05:32:27;;;;;;;9.20;5.77;;;;;;;3.42;84.07;95410.41;1734515;83;21276;-80
2020/12/04 05:35:07;;;;;;;9.25;5.05;;;;;;;3.42;83.98;95408.58;1734364;83;21130;-80
2020/12/04 05:37:34;;;;;;;9.23;5.53;;;;;;;3.37;83.93;95405.16;1734415;82;21276;-80
2020/12/04 05:40:01;;;;;;;10.65;6.08;;;;;;;3.37;83.87;95405.94;1734247;81;21150;-80
2020/12/04 05:42:40;;;;;;;8.80;5.45;;;;;;;3.34;83.84;95407.78;1734125;83;21142;-80
2020/12/04 05:45:08;;;;;;;8.78;4.47;;;;;;;3.23;83.62;95399.13;1734230;82;21127;-81
2020/12/04 05:47:39;;;;;;;9.60;5.25;;;;;;;3.08;83.44;95399.63;1734298;82;21141;-80
2020/12/04 05:50:10;;;;;;;9.28;4.67;;;;;;;3.07;83.82;95398.06;1734369;81;21312;-80
2020/12/04 05:52:38;;;;;;;7.65;4.67;;;;;;;3.16;84.12;95388.66;1734485;82;21293;-80
2020/12/04 05:55:10;;;;;;;10.25;6.67;;;;;;;3.11;83.89;95389.97;1734448;82;21162;-80
2020/12/04 05:57:53;;;;;;;10.32;5.83;;;;;;;3.04;83.45;95390.21;1735176;83;21146;-80
2020/12/04 06:00:22;;;;;;;11.43;5.33;;;;;;;2.88;83.49;95399.88;1734976;81;21143;-80
2020/12/04 06:03:00;;;;;;;6.95;4.35;;;;;;;2.85;83.63;95405.63;1734969;83;21150;-80
2020/12/04 06:05:28;;;;;;;8.18;4.67;;;;;;;2.76;83.52;95402.46;1735070;82;21131;-80
2020/12/04 06:08:07;;;;;;;8.95;5.83;;;;;;;2.66;83.88;95390.13;1735125;82;21154;-80
2020/12/04 06:10:36;;;;;;;7.10;4.90;;;;;;;2.90;84.69;95393.86;1735155;81;21146;-80
2020/12/04 06:13:04;;;;;;;6.75;4.62;;;;;;;2.90;84.17;95385.22;1734858;83;21146;-80
2020/12/04 06:15:33;;;;;;;9.18;5.00;;;;;;;2.75;83.76;95391.20;1734978;82;21111;-80
2020/12/04 06:18:11;;;;;;;8.80;5.45;;;;;;;2.72;84.08;95385.19;1734996;83;21159;-80
2020/12/04 06:20:45;;;;;;;7.97;4.80;;;;;;;3.06;84.83;95386.02;1735210;81;21150;-80
2020/12/04 06:23:18;;;;;;;8.10;4.60;;;;;;;3.14;84.32;95392.85;1735023;82;21459;-80
2020/12/04 06:25:56;;;;;;;9.98;5.58;;;;;;;3.14;84.13;95400.70;1734988;83;21091;-80
2020/12/04 06:28:31;;;;;;;6.95;4.40;;;;;;;3.22;84.33;95391.53;1735026;83;21123;-80
2020/12/04 06:31:13;;;;;;;7.12;4.97;;;;;;;3.26;84.27;95405.70;1734870;81;21143;-81
2020/12/04 06:33:50;;;;;;;7.08;4.50;;;;;;;3.43;84.61;95404.91;1734899;83;21135;-81
2020/12/04 06:36:34;;;;;;;9.93;5.87;;;;;;;3.64;84.33;95397.81;1735048;83;21485;-81
2020/12/04 06:39:04;;;;;;;10.75;5.22;;;;;;;3.65;83.45;95405.14;1734969;83;21491;-80
2020/12/04 06:41:45;;;;;;;9.03;5.80;;;;;;;3.52;83.19;95402.03;1735000;81;21119;-80
2020/12/04 06:44:24;;;;;;;8.65;5.03;;;;;;;3.61;83.46;95406.73;1734932;83;21118;-80
2020/12/04 06:46:55;;;;;;;11.63;7.60;;;;;;;3.65;83.41;95410.39;1734934;83;21170;-80
2020/12/04 06:49:46;;;;;;;11.73;6.00;;;;;;;3.41;82.32;95401.77;1734902;81;21151;-80
2020/12/04 06:52:23;;;;;;;10.90;5.70;;;;;;;3.29;82.24;95405.17;1714102;83;21127;-80
2020/12/04 06:54:52;;;;;;;9.98;5.72;;;;;;;3.25;82.55;95400.20;1734937;83;21123;-80
2020/12/04 06:57:22;;;;;;;10.80;6.22;;;;;;;3.08;82.16;95392.56;1734945;83;21495;-80
2020/12/04 06:59:50;;;;;;;8.83;4.83;;;;;;;3.02;82.45;95416.39;1735131;81;21498;-80
2020/12/04 07:02:22;;;;;;;10.25;5.33;;;;;;;3.05;82.86;95427.66;1710356;83;21154;-80
2020/12/04 07:04:52;;;;;;;8.83;5.12;;;;;;;3.00;83.18;95426.34;1734993;83;21126;-80
2020/12/04 07:07:26;;;;;;;10.23;5.10;;;;;;;3.23;84.04;95423.22;1735255;83;21146;-80
2020/12/04 07:10:02;;;;;;;8.85;4.70;;;;;;;3.64;84.09;95429.78;1735008;81;21147;-80
2020/12/04 07:12:33;;;;;;;6.83;4.35;;;;;;;3.91;83.78;95436.84;1735070;82;21130;-80
2020/12/04 07:15:01;;;;;;;15.45;8.65;;;;;;;4.07;83.46;95435.76;1735354;83;21111;-80
2020/12/04 07:17:30;;;;;;;10.65;7.12;;;;;;;4.05;82.32;95446.27;1735345;83;21502;-80
2020/12/04 07:19:59;;;;;;;9.55;6.12;;;;;;;3.99;82.03;95448.12;1735108;81;21491;-80
2020/12/04 07:22:28;;;;;;;11.05;6.17;;;;;;;4.22;82.41;95445.96;1735351;83;21502;-81
2020/12/04 07:24:57;;;;;;;14.00;6.78;;;;;;;4.39;82.14;95451.18;1735127;82;21134;-80
2020/12/04 07:27:30;;;;;;;10.30;6.45;;;;;;;4.52;81.82;95452.45;1735279;83;21146;-81
2020/12/04 07:29:58;;;;;;;12.47;6.50;;;;;;;4.71;81.65;95449.48;1735105;81;21580;-80
2020/12/04 07:32:27;;;;;;;10.68;6.53;;;;;;;5.01;81.24;95459.06;1735309;83;21158;-80
2020/12/04 07:34:54;;;;;;;9.33;5.60;;;;;;;5.35;81.40;95457.05;1735054;82;21151;-80
2020/12/04 07:37:28;;;;;;;13.10;7.75;;;;;;;5.70;81.04;95449.95;1735072;83;21216;-80
2020/12/04 07:39:55;;;;;;;11.65;6.83;;;;;;;5.91;80.45;95440.34;1735113;81;21143;-81
2020/12/04 07:42:23;;;;;;;11.03;5.92;;;;;;;6.11;80.25;95450.41;1735056;83;21534;-81
2020/12/04 07:44:54;;;;;;;10.70;6.47;;;;;;;6.27;79.87;95458.41;1734987;82;21134;-80
2020/12/04 07:47:22;;;;;;;8.75;5.42;;;;;;;6.35;79.45;95456.50;1735168;83;21103;-81
2020/12/04 07:49:54;;;;;;;8.93;5.37;;;;;;;6.43;78.21;95458.50;1735056;81;21146;-80
2020/12/04 07:52:33;;;;;;;8.60;5.55;;;;;;;6.18;78.04;95454.27;1735059;83;21119;-80
2020/12/04 07:55:04;;;;;;;8.48;5.33;;;;;;;6.17;78.72;95444.81;1731133;82;21538;-80
2020/12/04 07:57:44;;;;;;;20.57;12.10;;;;;;;6.19;78.81;95465.08;1728847;83;21632;-80
2020/12/04 08:00:16;;;;;;;13.72;8.30;;;;;;;5.89;77.57;95473.19;1728730;82;21659;-80
2020/12/04 08:02:43;;;;;;;10.70;6.60;;;;;;;5.48;77.44;95457.72;1728872;83;21601;-80
2020/12/04 08:05:21;;;;;;;8.50;5.12;;;;;;;5.39;78.35;95457.28;1728849;83;21494;-80
2020/12/04 08:07:54;;;;;;;20.45;11.20;;;;;;;5.48;78.82;95466.92;1728786;82;21139;-80
2020/12/04 08:10:22;;;;;;;17.17;10.58;;;;;;;5.25;77.76;95461.04;1728560;82;21123;-79
2020/12/04 08:12:50;;;;;;;15.13;8.63;;;;;;;5.27;78.54;95455.77;1728840;83;21142;-79
2020/12/04 08:15:19;;;;;;;13.40;8.15;;;;;;;5.39;78.68;95458.59;1700352;83;21142;-79
2020/12/04 08:17:47;;;;;;;10.38;5.65;;;;;;;5.54;78.90;95455.85;1728790;83;21281;-80
2020/12/04 08:20:18;;;;;;;10.98;6.72;;;;;;;5.53;78.31;95468.74;1728718;82;21653;-79
2020/12/04 08:22:50;;;;;;;11.55;6.80;;;;;;;5.41;78.33;95474.87;1728767;83;21154;-80
2020/12/04 08:25:27;;;;;;;10.63;6.12;;;;;;;5.50;78.68;95483.75;1728751;83;21270;-80
2020/12/04 08:27:56;;;;;;;9.23;5.62;;;;;;;5.56;78.61;95468.97;1729078;83;21091;-80
2020/12/04 08:30:27;;;;;;;10.48;6.17;;;;;;;5.64;78.39;95478.14;1728709;82;21491;-80
2020/12/04 08:33:03;;;;;;;12.25;6.65;;;;;;;5.55;77.84;95476.61;1729039;83;21131;-80
2020/12/04 08:35:38;;;;;;;11.22;6.95;;;;;;;5.56;78.25;95460.30;1728755;83;21140;-80
2020/12/04 08:38:16;;;;;;;13.83;8.53;;;;;;;5.69;78.39;95474.14;1728997;83;21289;-80
2020/12/04 08:40:53;;;;;;;12.30;7.65;;;;;;;5.74;77.71;95472.00;1728881;82;21131;-80
2020/12/04 08:43:24;;;;;;;12.00;7.08;;;;;;;5.83;77.94;95464.56;1728737;83;21238;-80
2020/12/04 08:45:56;;;;;;;12.73;7.03;;;;;;;5.79;77.53;95470.12;1728749;83;21512;-80
2020/12/04 08:48:28;;;;;;;12.88;7.45;;;;;;;5.82;77.75;95478.78;1729026;83;21131;-80
2020/12/04 08:51:05;;;;;;;12.07;7.80;;;;;;;5.97;77.94;95481.05;1728709;82;21131;-80
2020/12/04 08:53:33;;;;;;;10.98;6.28;;;;;;;6.05;77.60;95477.28;1729059;83;21123;-80
2020/12/04 08:56:02;;;;;;;9.30;5.92;;;;;;;6.31;76.10;95488.89;1728728;83;21479;-80
2020/12/04 08:58:30;;;;;;;12.87;8.13;;;;;;;6.60;75.36;95480.96;1728983;83;21661;-80
2020/12/04 09:01:00;;;;;;;9.93;5.97;;;;;;;6.72;75.60;95468.19;1728733;82;21155;-80
2020/12/04 09:03:29;;;;;;;9.68;6.42;;;;;;;6.72;75.48;95455.80;1729139;83;21174;-80
2020/12/04 09:05:57;;;;;;;9.33;6.55;;;;;;;6.83;74.45;95465.16;1728935;83;21293;-80
2020/12/04 09:08:24;;;;;;;10.55;7.25;;;;;;;6.89;74.80;95459.81;1728842;83;21274;-80
2020/12/04 09:10:51;;;;;;;15.58;9.08;;;;;;;6.92;75.14;95473.77;1728734;82;21174;-79
2020/12/04 09:13:19;;;;;;;19.15;11.53;;;;;;;6.94;74.94;95478.22;1728665;83;21506;-80
2020/12/04 09:15:46;;;;;;;13.08;7.92;;;;;;;6.91;74.86;95467.72;1728697;83;21138;-80
2020/12/04 09:18:15;;;;;;;14.18;8.68;;;;;;;7.00;74.23;95473.91;1728773;83;21135;-79
2020/12/04 09:20:41;;;;;;;13.50;8.38;;;;;;;6.99;74.20;95464.44;1728749;82;21172;-80
2020/12/04 09:23:09;;;;;;;11.53;7.10;;;;;;;7.05;74.35;95473.86;1728953;83;21135;-80
2020/12/04 09:25:37;;;;;;;11.35;6.47;;;;;;;7.14;73.68;95469.50;1728713;83;21510;-80
2020/12/04 09:28:04;;;;;;;14.07;7.20;;;;;;;7.25;72.85;95466.74;1728722;83;21704;-80
2020/12/04 09:30:31;;;;;;;8.38;5.67;;;;;;;7.31;72.68;95472.97;1728605;82;21161;-80
2020/12/04 09:32:58;;;;;;;9.35;5.90;;;;;;;7.41;72.28;95470.20;1728749;83;21475;-80
2020/12/04 09:35:25;;;;;;;11.45;6.35;;;;;;;7.47;70.89;95463.02;1728821;83;21143;-80
2020/12/04 09:37:53;;;;;;;14.87;9.08;;;;;;;7.42;71.66;95465.70;1728744;83;21150;-80
2020/12/04 09:40:20;;;;;;;10.58;7.28;;;;;;;7.38;70.35;95454.17;1728941;82;21146;-80
2020/12/04 09:42:47;;;;;;;10.08;6.33;;;;;;;7.46;70.44;95454.86;1728688;83;21162;-80
2020/12/04 09:45:15;;;;;;;13.00;7.80;;;;;;;7.55;69.85;95461.03;1728754;83;21590;-80
2020/12/04 09:47:43;;;;;;;11.60;7.12;;;;;;;7.61;69.56;95444.08;1728741;83;21130;-80
2020/12/04 09:50:15;;;;;;;10.10;6.65;;;;;;;7.63;69.96;95443.25;1728689;82;21150;-80
2020/12/04 09:52:43;;;;;;;10.68;6.60;;;;;;;7.67;70.65;95452.15;1728707;83;21265;-80
2020/12/04 09:55:11;;;;;;;8.25;4.53;;;;;;;7.64;70.12;95442.17;1728714;83;21530;-80
2020/12/04 09:57:38;;;;;;;9.53;5.97;;;;;;;7.67;70.00;95440.28;1728657;83;21668;-80
2020/12/04 10:00:07;;;;;;;18.73;11.90;;;;;;;7.82;70.60;95418.68;1728633;82;21280;-80
2020/12/04 10:02:35;;;;;;;10.03;6.90;;;;;;;7.95;70.86;95420.57;1728677;83;21199;-80
2020/12/04 10:05:03;;;;;;;9.20;6.10;;;;;;;8.12;71.03;95420.80;1728750;83;21518;-80
2020/12/04 10:07:30;;;;;;;9.85;5.70;;;;;;;8.29;71.14;95404.37;1728790;83;21152;-80
2020/12/04 10:09:58;;;;;;;9.08;7.70;;;;;;;8.47;71.22;95405.41;1728734;82;21191;-80
2020/12/04 10:12:25;;;;;;;8.60;5.40;;;;;;;8.65;70.34;95415.63;1728701;83;21468;-80
2020/12/04 10:14:52;;;;;;;12.90;8.60;;;;;;;8.83;70.28;95412.08;1728671;83;21633;-80
2020/12/04 10:17:20;;;;;;;14.80;8.10;;;;;;;8.93;70.43;95402.08;1728743;83;21488;-80
2020/12/04 10:19:47;;;;;;;12.68;7.12;;;;;;;9.15;70.08;95412.48;1728626;82;21306;-80
2020/12/04 10:22:16;;;;;;;13.75;7.08;;;;;;;9.30;70.03;95404.20;1728696;83;21285;-80
2020/12/04 10:24:43;;;;;;;14.03;8.70;;;;;;;9.38;68.71;95396.08;1728691;83;21257;-80
2020/12/04 10:27:10;;;;;;;16.65;13.15;;;;;;;9.20;67.05;95405.74;1728750;83;21546;-80
2020/12/04 10:29:38;;;;;;;6.30;4.87;;;;;;;9.04;65.91;95409.80;1728921;82;21277;-80
2020/12/04 10:32:05;;;;;;;7.65;4.28;;;;;;;8.98;64.90;95405.69;1728667;83;21188;-80
2020/12/04 10:34:32;;;;;;;7.47;4.78;;;;;;;8.98;65.20;95421.55;1728762;83;21137;-80
2020/12/04 10:36:59;;;;;;;6.03;4.83;;;;;;;9.00;64.37;95416.74;1728836;83;21111;-80
2020/12/04 10:39:27;;;;;;;6.92;4.08;;;;;;;9.03;63.43;95417.49;1728628;82;21154;-80
2020/12/04 10:41:54;;;;;;;6.33;3.92;;;;;;;9.01;62.45;95412.51;1728570;83;21269;-80
2020/12/04 10:44:21;;;;;;;6.62;4.40;;;;;;;9.09;63.03;95409.69;1728763;83;21146;-80
2020/12/04 10:46:48;;;;;;;6.40;3.72;;;;;;;9.01;62.76;95414.34;1728644;83;21167;-80
2020/12/04 10:49:16;;;;;;;5.37;3.72;;;;;;;8.92;63.19;95404.48;1728880;83;21107;-80
2020/12/04 10:51:43;;;;;;;6.55;3.87;;;;;;;9.03;62.76;95413.53;1728200;83;21115;-80
2020/12/04 10:54:11;;;;;;;7.50;4.30;;;;;;;9.06;62.94;95402.35;1728718;83;21147;-80
2020/12/04 10:56:38;;;;;;;6.00;4.10;;;;;;;8.96;63.75;95393.31;1730827;83;21158;-80
2020/12/04 10:59:05;;;;;;;6.53;4.00;;;;;;;8.99;63.80;95396.67;1734228;83;21142;-80
2020/12/04 11:01:37;;;;;;;5.83;3.52;;;;;;;9.14;63.19;95387.09;1734225;81;21314;-80
2020/12/04 11:06:47;;;;;;;7.58;3.95;;;;;;;9.04;61.79;95388.66;1734101;83;21511;-81
2020/12/04 11:09:14;;;;;;;5.53;3.27;;;;;;;9.03;62.00;95384.45;1734080;83;21111;-81
2020/12/04 11:11:42;;;;;;;5.95;3.35;;;;;;;8.99;61.28;95384.24;1733938;81;21538;-81
2020/12/04 11:14:09;;;;;;;6.20;3.80;;;;;;;8.98;61.67;95377.39;1734217;82;21184;-81
2020/12/04 11:16:41;;;;;;;5.33;3.30;;;;;;;9.04;61.42;95364.86;1734236;82;21284;-81
2020/12/04 11:19:10;;;;;;;4.70;3.20;;;;;;;9.11;61.54;95362.58;1734170;83;21136;-81
2020/12/04 11:21:38;;;;;;;5.22;3.50;;;;;;;9.19;61.55;95369.81;1734109;81;21526;-81
2020/12/04 11:24:06;;;;;;;4.40;2.90;;;;;;;9.20;60.75;95371.37;1734120;83;21134;-81
2020/12/04 11:26:33;;;;;;;5.35;3.27;;;;;;;9.11;61.09;95369.19;1734274;83;21285;-81
2020/12/04 11:29:01;;;;;;;5.10;3.20;;;;;;;8.97;61.41;95365.26;1734145;83;21151;-81
2020/12/04 11:31:28;;;;;;;6.60;4.20;;;;;;;8.75;61.24;95366.01;1733974;81;21135;-81
2020/12/04 11:33:56;;;;;;;5.08;3.52;;;;;;;8.68;61.91;95355.05;1734241;83;21296;-81
2020/12/04 11:36:23;;;;;;;4.33;3.33;;;;;;;8.63;61.90;95360.44;1734099;83;21137;-81
2020/12/04 11:38:50;;;;;;;5.15;3.52;;;;;;;8.62;62.57;95354.92;1734101;83;21131;-81
2020/12/04 11:41:17;;;;;;;5.42;3.62;;;;;;;8.65;62.39;95360.92;1734104;81;21518;-81
2020/12/04 11:43:44;;;;;;;5.12;3.77;;;;;;;8.63;62.39;95363.87;1734137;83;21538;-81
2020/12/04 11:46:11;;;;;;;5.17;3.77;;;;;;;8.60;62.59;95365.00;1734164;82;21159;-81
2020/12/04 11:48:38;;;;;;;5.72;3.52;;;;;;;8.58;63.30;95355.25;1734150;82;21135;-81